createdAt,value
2023-04-21T00:03:03.522Z,102023.78
2023-04-21T00:06:07.495Z,102018.44
2023-04-21T00:09:11.819Z,102014.84
2023-04-21T00:12:14.762Z,102018.25
2023-04-21T00:15:17.659Z,102017.34
2023-04-21T00:18:20.505Z,102014.69
2023-04-21T00:21:23.411Z,102017.34
2023-04-21T00:24:28.053Z,102009.41
2023-04-21T00:27:30.955Z,102010.28
2023-04-21T00:30:33.882Z,102002.25
2023-04-21T00:33:37.104Z,101995.25
2023-04-21T00:36:39.981Z,101999.72
2023-04-21T00:39:44.264Z,101994.53
2023-04-21T00:42:49.442Z,101996.22
2023-04-21T00:45:52.356Z,101995.41
2023-04-21T00:48:55.238Z,101999.84
2023-04-21T00:51:59.277Z,102001.50
2023-04-21T00:55:05.642Z,101996.16
2023-04-21T00:58:08.713Z,101993.50
2023-04-21T01:01:12.486Z,101998.91
2023-04-21T01:04:15.403Z,101997.09
2023-04-21T01:07:18.334Z,101999.78
2023-04-21T01:10:22.615Z,101995.31
2023-04-21T01:13:25.563Z,102006.88
2023-04-21T01:16:29.537Z,101997.31
2023-04-21T01:19:35.769Z,102000.88
2023-04-21T01:22:41.675Z,101996.50
2023-04-21T01:25:44.543Z,101995.53
2023-04-21T01:28:48.850Z,101996.34
2023-04-21T01:31:51.891Z,101994.66
2023-04-21T01:34:55.202Z,101990.22
2023-04-21T01:37:59.702Z,101990.22
2023-04-21T01:41:02.585Z,101985.75
2023-04-21T01:44:05.830Z,101990.13
2023-04-21T01:47:10.079Z,101980.44
2023-04-21T01:50:13.077Z,101988.50
2023-04-21T01:53:19.837Z,101986.72
2023-04-21T01:56:22.835Z,101985.97
2023-04-21T01:59:25.933Z,101986.84
2023-04-21T02:02:28.952Z,101978.06
2023-04-21T02:05:31.919Z,101980.69
2023-04-21T02:08:36.231Z,101983.25
2023-04-21T02:11:39.195Z,101988.50
2023-04-21T02:14:42.135Z,101985.00
2023-04-21T02:17:45.253Z,101973.47
2023-04-21T02:20:48.362Z,101979.66
2023-04-21T02:23:52.967Z,101976.06
2023-04-21T02:26:57.622Z,101974.34
2023-04-21T02:30:00.525Z,101978.78
2023-04-21T02:33:03.481Z,101972.69
2023-04-21T02:36:07.219Z,101972.69
2023-04-21T02:39:11.601Z,101976.25
2023-04-21T02:42:14.514Z,101975.38
2023-04-21T02:45:17.553Z,101981.59
2023-04-21T02:48:23.038Z,101978.88
2023-04-21T02:51:27.476Z,101974.41
2023-04-21T02:54:31.709Z,101975.31
2023-04-21T02:57:34.714Z,101982.38
2023-04-21T03:00:37.734Z,101982.34
2023-04-21T03:03:40.838Z,101975.25
2023-04-21T03:06:43.723Z,101976.06
2023-04-21T03:09:49.913Z,101976.94
2023-04-21T03:12:53.582Z,101974.22
2023-04-21T03:15:57.335Z,101971.50
2023-04-21T03:19:00.489Z,101969.72
2023-04-21T03:22:03.650Z,101970.53
2023-04-21T03:25:08.837Z,101970.53
2023-04-21T03:28:11.935Z,101972.34
2023-04-21T03:31:14.884Z,101974.97
2023-04-21T03:34:17.792Z,101976.75
2023-04-21T03:37:21.121Z,101972.28
2023-04-21T03:40:26.466Z,101972.28
2023-04-21T03:43:29.412Z,101972.28
2023-04-21T03:46:32.434Z,101973.16
2023-04-21T03:49:36.232Z,101968.75
2023-04-21T03:52:39.101Z,101969.63
2023-04-21T03:55:43.379Z,101969.63
2023-04-21T03:58:46.307Z,101966.03
2023-04-21T04:01:49.218Z,101971.34
2023-04-21T04:04:52.197Z,101968.69
2023-04-21T04:07:55.318Z,101978.44
2023-04-21T04:10:59.542Z,101972.22
2023-04-21T04:14:02.413Z,101976.69
2023-04-21T04:17:05.286Z,101982.00
2023-04-21T04:20:09.413Z,101974.97
2023-04-21T04:23:12.356Z,101972.28
2023-04-21T04:26:16.673Z,101982.06
2023-04-21T04:29:20.101Z,101982.06
2023-04-21T04:32:23.174Z,101981.19
2023-04-21T04:35:26.149Z,101974.97
2023-04-21T04:38:30.409Z,101975.00
2023-04-21T04:41:36.382Z,101979.47
2023-04-21T04:44:41.504Z,101975.00
2023-04-21T04:47:45.880Z,101982.13
2023-04-21T04:50:48.926Z,101984.81
2023-04-21T04:53:51.831Z,101984.81
2023-04-21T04:56:56.781Z,101981.25
2023-04-21T04:59:59.660Z,101984.81
2023-04-21T05:03:02.675Z,101988.34
2023-04-21T05:06:06.551Z,101993.69
2023-04-21T05:09:10.243Z,102000.78
2023-04-21T05:12:14.487Z,101985.69
2023-04-21T05:15:18.776Z,101991.91
2023-04-21T05:18:21.661Z,101990.13
2023-04-21T05:21:27.632Z,101991.00
2023-04-21T05:24:30.753Z,101991.00
2023-04-21T05:27:35.296Z,101991.00
2023-04-21T05:30:38.263Z,101990.13
2023-04-21T05:33:41.179Z,101992.81
2023-04-21T05:36:44.453Z,101985.69
2023-04-21T05:39:47.428Z,101998.16
2023-04-21T05:42:51.693Z,101999.03
2023-04-21T05:45:54.613Z,101990.16
2023-04-21T05:48:57.532Z,101993.72
2023-04-21T05:52:00.479Z,101986.59
2023-04-21T05:55:03.322Z,101990.13
2023-04-21T05:58:07.600Z,101986.53
2023-04-21T06:01:10.740Z,101983.84
2023-04-21T06:04:13.987Z,101984.69
2023-04-21T06:07:18.782Z,101983.84
2023-04-21T06:10:21.976Z,101986.44
2023-04-21T06:13:27.534Z,101983.72
2023-04-21T06:16:34.082Z,101982.84
2023-04-21T06:19:40.030Z,101979.25
2023-04-21T06:22:43.704Z,101978.31
2023-04-21T06:25:46.612Z,101975.66
2023-04-21T06:28:51.316Z,101972.97
2023-04-21T06:31:54.219Z,101975.63
2023-04-21T06:34:57.170Z,101983.56
2023-04-21T06:38:00.023Z,101980.88
2023-04-21T06:41:04.580Z,101970.19
2023-04-21T06:44:08.927Z,101971.91
2023-04-21T06:47:11.842Z,101972.78
2023-04-21T06:50:14.796Z,101966.56
2023-04-21T06:53:18.128Z,101963.91
2023-04-21T06:56:21.191Z,101968.34
2023-04-21T06:59:25.545Z,101977.16
2023-04-21T07:02:28.650Z,101959.34
2023-04-21T07:05:31.700Z,101964.66
2023-04-21T07:08:34.568Z,101971.81
2023-04-21T07:11:37.464Z,101970.88
2023-04-21T07:14:41.733Z,101954.84
2023-04-21T07:17:44.727Z,101961.91
2023-04-21T07:20:47.664Z,101966.34
2023-04-21T07:23:50.600Z,101975.19
2023-04-21T07:26:53.514Z,101969.84
2023-04-21T07:29:57.872Z,101962.72
2023-04-21T07:33:00.864Z,101969.00
2023-04-21T07:36:03.803Z,101960.13
2023-04-21T07:39:06.969Z,101969.91
2023-04-21T07:42:11.103Z,101961.16
2023-04-21T07:45:15.380Z,101959.56
2023-04-21T07:48:18.320Z,101954.53
2023-04-21T07:51:21.219Z,101955.69
2023-04-21T07:54:24.156Z,101950.50
2023-04-21T07:57:27.044Z,101947.03
2023-04-21T08:00:31.341Z,101947.16
2023-04-21T08:03:34.602Z,101955.22
2023-04-21T08:06:37.871Z,101948.94
2023-04-21T08:09:40.909Z,101947.00
2023-04-21T08:12:43.831Z,101951.25
2023-04-21T08:15:48.168Z,101942.22
2023-04-21T08:18:51.066Z,101940.38
2023-04-21T08:21:54.111Z,101939.47
2023-04-21T08:24:57.177Z,101934.09
2023-04-21T08:28:00.419Z,101939.34
2023-04-21T08:31:05.307Z,101934.84
2023-04-21T08:34:08.295Z,101931.28
2023-04-21T08:37:11.349Z,101936.59
2023-04-21T08:40:14.390Z,101933.00
2023-04-21T08:43:17.363Z,101929.41
2023-04-21T08:46:22.971Z,101929.41
2023-04-21T08:49:30.590Z,101929.41
2023-04-21T08:52:33.565Z,101925.81
2023-04-21T08:55:36.739Z,101927.56
2023-04-21T08:58:39.656Z,101932.91
2023-04-21T09:02:09.952Z,101925.75
2023-04-21T09:05:22.936Z,101927.53
2023-04-21T09:08:28.075Z,101920.41
2023-04-21T09:11:34.183Z,101925.75
2023-04-21T09:14:37.080Z,101922.19
2023-04-21T09:17:41.784Z,101922.19
2023-04-21T09:20:46.632Z,101918.56
2023-04-21T09:23:51.230Z,101919.47
2023-04-21T09:26:54.614Z,101920.34
2023-04-21T09:30:06.017Z,101912.34
2023-04-21T09:33:27.963Z,101900.72
2023-04-21T09:36:33.734Z,101907.81
2023-04-21T09:39:46.371Z,101901.59
2023-04-21T09:42:56.129Z,101907.81
2023-04-21T09:46:01.487Z,101901.59
2023-04-21T09:49:06.143Z,101903.38
2023-04-21T09:52:19.091Z,101888.34
2023-04-21T09:55:27.093Z,101885.66
2023-04-21T09:58:36.004Z,101888.34
2023-04-21T10:01:39.861Z,101881.25
2023-04-21T10:04:45.771Z,101881.25
2023-04-21T10:07:50.186Z,101883.91
2023-04-21T10:10:54.477Z,101880.34
2023-04-21T10:13:57.467Z,101871.53
2023-04-21T10:17:06.533Z,101870.69
2023-04-21T10:20:16.498Z,101879.56
2023-04-21T10:23:31.117Z,101854.75
2023-04-21T10:26:36.069Z,101877.81
2023-04-21T10:29:55.498Z,101876.09
2023-04-21T10:33:04.274Z,101858.34
2023-04-21T10:36:15.686Z,101863.66
2023-04-21T10:39:28.993Z,101857.47
2023-04-21T10:42:36.914Z,101847.66
2023-04-21T10:45:40.054Z,101843.22
2023-04-21T10:48:42.951Z,101858.34
2023-04-21T10:52:07.982Z,101856.59
2023-04-21T10:55:12.700Z,101852.19
2023-04-21T10:58:17.486Z,101845.13
2023-04-21T11:01:21.452Z,101836.25
2023-04-21T11:04:25.356Z,101836.25
2023-04-21T11:07:31.024Z,101844.31
2023-04-21T11:10:43.880Z,101836.31
2023-04-21T11:13:47.663Z,101827.44
2023-04-21T11:16:51.139Z,101823.88
2023-04-21T11:19:55.784Z,101814.97
2023-04-21T11:23:00.087Z,101817.66
2023-04-21T11:26:03.062Z,101814.09
2023-04-21T11:29:07.604Z,101817.66
2023-04-21T11:32:10.725Z,101828.31
2023-04-21T11:35:13.731Z,101800.84
2023-04-21T11:38:18.978Z,101797.28
2023-04-21T11:41:23.106Z,101805.28
2023-04-21T11:44:36.380Z,101800.88
2023-04-21T11:47:40.107Z,101798.25
2023-04-21T11:50:48.496Z,101801.81
2023-04-21T11:53:53.112Z,101798.25
2023-04-21T11:56:56.075Z,101773.38
2023-04-21T12:00:00.012Z,101780.41
2023-04-21T12:03:03.170Z,101775.97
2023-04-21T12:06:07.608Z,101769.75
2023-04-21T12:09:18.326Z,101773.28
2023-04-21T12:12:23.188Z,101770.69
2023-04-21T12:15:26.263Z,101760.88
2023-04-21T12:18:29.362Z,101762.69
2023-04-21T12:21:32.336Z,101758.28
2023-04-21T12:24:36.996Z,101749.53
2023-04-21T12:27:49.194Z,101749.75
2023-04-21T12:30:52.150Z,101746.28
2023-04-21T12:33:55.216Z,101744.56
2023-04-21T12:36:58.178Z,101733.91
2023-04-21T12:40:02.472Z,101732.06
2023-04-21T12:43:05.413Z,101732.88
2023-04-21T12:46:08.773Z,101732.81
2023-04-21T12:49:11.815Z,101732.78
2023-04-21T12:52:14.731Z,101723.84
2023-04-21T12:55:19.170Z,101724.72
2023-04-21T12:58:22.108Z,101718.44
2023-04-21T13:01:25.513Z,101730.88
2023-04-21T13:04:29.054Z,101715.75
2023-04-21T13:07:32.362Z,101717.47
2023-04-21T13:10:36.665Z,101721.03
2023-04-21T13:13:39.611Z,101712.06
2023-04-21T13:16:42.769Z,101712.03
2023-04-21T13:19:45.782Z,101713.75
2023-04-21T13:22:48.781Z,101699.53
2023-04-21T13:25:53.102Z,101716.34
2023-04-21T13:28:56.177Z,101712.72
2023-04-21T13:31:59.105Z,101686.06
2023-04-21T13:35:02.001Z,101698.47
2023-04-21T13:38:04.934Z,101686.06
2023-04-21T13:41:09.411Z,101680.69
2023-04-21T13:44:12.413Z,101668.22
2023-04-21T13:47:15.756Z,101672.63
2023-04-21T13:50:18.816Z,101660.19
2023-04-21T13:53:21.791Z,101658.34
2023-04-21T13:56:26.391Z,101660.13
2023-04-21T13:59:29.360Z,101660.13
2023-04-21T14:02:32.432Z,101646.78
2023-04-21T14:05:36.573Z,101637.84
2023-04-21T14:08:39.712Z,101643.16
2023-04-21T14:11:44.004Z,101649.38
2023-04-21T14:14:47.310Z,101654.72
2023-04-21T14:17:50.379Z,101639.59
2023-04-21T14:20:53.383Z,101628.94
2023-04-21T14:23:56.353Z,101623.59
2023-04-21T14:27:01.195Z,101619.13
2023-04-21T14:30:04.388Z,101617.38
2023-04-21T14:33:07.282Z,101625.38
2023-04-21T14:36:10.487Z,101624.44
2023-04-21T14:39:13.447Z,101612.84
2023-04-21T14:42:18.694Z,101611.91
2023-04-21T14:45:21.747Z,101607.44
2023-04-21T14:48:24.720Z,101597.59
2023-04-21T14:51:27.766Z,101598.47
2023-04-21T14:54:30.703Z,101600.25
2023-04-21T14:57:35.034Z,101595.72
2023-04-21T15:00:38.010Z,101600.19
2023-04-21T15:03:41.048Z,101595.72
2023-04-21T15:06:43.983Z,101587.75
2023-04-21T15:09:48.567Z,101581.53
2023-04-21T15:12:52.965Z,101579.72
2023-04-21T15:15:55.826Z,101574.34
2023-04-21T15:18:58.706Z,101573.41
2023-04-21T15:22:01.618Z,101562.75
2023-04-21T15:25:04.766Z,101564.47
2023-04-21T15:28:09.851Z,101563.56
2023-04-21T15:31:13.036Z,101553.75
2023-04-21T15:34:16.028Z,101557.28
2023-04-21T15:37:20.169Z,101558.16
2023-04-21T15:40:23.273Z,101548.38
2023-04-21T15:43:27.611Z,101549.25
2023-04-21T15:46:30.735Z,101548.38
2023-04-21T15:49:34.052Z,101543.03
2023-04-21T15:52:37.946Z,101540.28
2023-04-21T15:55:40.922Z,101543.91
2023-04-21T15:58:45.841Z,101547.41
2023-04-21T16:01:48.836Z,101545.63
2023-04-21T16:04:52.116Z,101542.88
2023-04-21T16:07:55.245Z,101538.50
2023-04-21T16:10:58.254Z,101529.53
2023-04-21T16:14:02.722Z,101527.75
2023-04-21T16:17:05.896Z,101525.09
2023-04-21T16:20:10.729Z,101521.53
2023-04-21T16:23:13.748Z,101512.63
2023-04-21T16:26:16.896Z,101508.22
2023-04-21T16:29:21.169Z,101514.38
2023-04-21T16:32:24.175Z,101512.63
2023-04-21T16:35:27.332Z,101505.50
2023-04-21T16:38:30.342Z,101501.03
2023-04-21T16:41:33.242Z,101501.88
2023-04-21T16:44:37.652Z,101501.84
2023-04-21T16:47:42.292Z,101503.56
2023-04-21T16:50:45.598Z,101500.91
2023-04-21T16:53:48.500Z,101498.22
2023-04-21T16:56:51.469Z,101500.91
2023-04-21T16:59:56.063Z,101499.97
2023-04-21T17:02:59.199Z,101486.69
2023-04-21T17:06:04.587Z,101497.34
2023-04-21T17:09:08.246Z,101492.03
2023-04-21T17:12:11.147Z,101488.50
2023-04-21T17:15:15.448Z,101485.84
2023-04-21T17:18:18.480Z,101494.69
2023-04-21T17:21:21.487Z,101491.19
2023-04-21T17:24:24.934Z,101491.19
2023-04-21T17:27:27.931Z,101492.03
2023-04-21T17:30:32.203Z,101480.50
2023-04-21T17:33:35.342Z,101485.84
2023-04-21T17:36:39.827Z,101482.38
2023-04-21T17:39:42.863Z,101489.53
2023-04-21T17:42:45.829Z,101491.41
2023-04-21T17:45:50.197Z,101497.69
2023-04-21T17:48:53.299Z,101493.28
2023-04-21T17:51:56.395Z,101485.28
2023-04-21T17:54:59.309Z,101483.47
2023-04-21T17:58:02.283Z,101484.28
2023-04-21T18:01:07.270Z,101484.28
2023-04-21T18:04:10.410Z,101484.22
2023-04-21T18:07:13.544Z,101484.16
2023-04-21T18:10:16.433Z,101482.38
2023-04-21T18:13:19.335Z,101491.22
2023-04-21T18:16:24.084Z,101494.75
2023-04-21T18:19:27.382Z,101493.88
2023-04-21T18:22:30.288Z,101487.72
2023-04-21T18:25:42.176Z,101498.38
2023-04-21T18:28:46.115Z,101497.44
2023-04-21T18:31:50.566Z,101493.88
2023-04-21T18:34:53.739Z,101499.22
2023-04-21T18:37:56.733Z,101503.72
2023-04-21T18:40:59.676Z,101498.38
2023-04-21T18:44:02.582Z,101500.09
2023-04-21T18:47:06.975Z,101496.50
2023-04-21T18:50:10.635Z,101503.63
2023-04-21T18:53:13.593Z,101503.56
2023-04-21T18:56:16.923Z,101502.69
2023-04-21T18:59:22.074Z,101498.31
2023-04-21T19:02:26.485Z,101500.09
2023-04-21T19:05:31.309Z,101500.09
2023-04-21T19:08:42.096Z,101501.88
2023-04-21T19:11:46.271Z,101502.75
2023-04-21T19:14:50.159Z,101500.09
2023-04-21T19:17:54.955Z,101493.84
2023-04-21T19:20:57.855Z,101500.97
2023-04-21T19:24:01.020Z,101500.03
2023-04-21T19:27:06.066Z,101501.84
2023-04-21T19:30:10.259Z,101497.34
2023-04-21T19:33:14.536Z,101503.56
2023-04-21T19:36:17.585Z,101498.22
2023-04-21T19:39:20.627Z,101500.81
2023-04-21T19:42:23.568Z,101499.09
2023-04-21T19:45:27.245Z,101494.66
2023-04-21T19:48:32.056Z,101491.03
2023-04-21T19:51:34.967Z,101494.56
2023-04-21T19:54:38.224Z,101503.47
2023-04-21T19:57:41.374Z,101499.84
2023-04-21T20:00:46.278Z,101504.19
2023-04-21T20:03:51.805Z,101499.72
2023-04-21T20:06:54.900Z,101495.25
2023-04-21T20:09:57.980Z,101498.72
2023-04-21T20:13:00.914Z,101490.72
2023-04-21T20:16:03.976Z,101503.19
2023-04-21T20:19:08.996Z,101499.56
2023-04-21T20:22:11.943Z,101500.44
2023-04-21T20:25:15.045Z,101501.34
2023-04-21T20:28:18.055Z,101504.00
2023-04-21T20:31:23.728Z,101502.25
2023-04-21T20:34:28.217Z,101496.88
2023-04-21T20:37:33.513Z,101496.00
2023-04-21T20:40:36.474Z,101508.38
2023-04-21T20:43:40.403Z,101503.94
2023-04-21T20:46:43.568Z,101504.81
2023-04-21T20:49:48.400Z,101503.00
2023-04-21T20:52:51.463Z,101499.47
2023-04-21T20:55:54.438Z,101502.13
2023-04-21T20:58:57.398Z,101505.69
2023-04-21T21:02:00.475Z,101505.69
2023-04-21T21:05:05.276Z,101501.19
2023-04-21T21:08:08.651Z,101503.84
2023-04-21T21:11:11.540Z,101498.50
2023-04-21T21:14:14.768Z,101497.66
2023-04-21T21:17:18.051Z,101506.50
2023-04-21T21:20:22.569Z,101499.34
2023-04-21T21:23:26.006Z,101501.16
2023-04-21T21:26:28.925Z,101504.69
2023-04-21T21:29:31.870Z,101504.69
2023-04-21T21:32:35.060Z,101504.69
2023-04-21T21:35:39.466Z,101502.03
2023-04-21T21:38:42.418Z,101503.81
2023-04-21T21:41:45.342Z,101500.28
2023-04-21T21:44:48.199Z,101503.84
2023-04-21T21:47:51.348Z,101503.81
2023-04-21T21:50:55.774Z,101500.28
2023-04-21T21:53:58.638Z,101508.28
2023-04-21T21:57:02.044Z,101512.72
2023-04-21T22:00:07.618Z,101508.28
2023-04-21T22:03:11.070Z,101508.28
2023-04-21T22:06:17.220Z,101505.69
2023-04-21T22:09:21.029Z,101504.81
2023-04-21T22:12:24.034Z,101509.25
2023-04-21T22:15:26.934Z,101507.53
2023-04-21T22:18:30.117Z,101509.34
2023-04-21T22:21:34.478Z,101513.72
2023-04-21T22:24:37.404Z,101516.53
2023-04-21T22:27:40.423Z,101511.28
2023-04-21T22:30:43.400Z,101510.66
2023-04-21T22:33:46.603Z,101508.91
2023-04-21T22:36:52.085Z,101514.25
2023-04-21T22:40:05.140Z,101518.88
2023-04-21T22:43:08.787Z,101523.38
2023-04-21T22:46:21.481Z,101520.09
2023-04-21T22:49:24.488Z,101518.59
2023-04-21T22:52:28.737Z,101519.78
2023-04-21T22:55:31.961Z,101522.53
2023-04-21T22:58:34.883Z,101526.00
2023-04-21T23:01:37.953Z,101524.13
2023-04-21T23:04:40.879Z,101520.53
2023-04-21T23:07:45.162Z,101529.38
2023-04-21T23:10:48.219Z,101533.69
2023-04-21T23:13:51.260Z,101527.38
2023-04-21T23:16:54.306Z,101529.97
2023-04-21T23:19:57.450Z,101526.41
2023-04-21T23:23:05.672Z,101533.50
2023-04-21T23:26:08.540Z,101529.00
2023-04-21T23:29:12.787Z,101532.53
2023-04-21T23:32:15.771Z,101530.75
2023-04-21T23:35:18.992Z,101520.97
2023-04-21T23:38:23.265Z,101530.75
2023-04-21T23:41:26.184Z,101525.53
2023-04-21T23:44:29.107Z,101528.34
2023-04-21T23:47:32.108Z,101531.03
2023-04-21T23:50:35.326Z,101524.00
2023-04-21T23:53:39.720Z,101522.22
2023-04-21T23:56:42.641Z,101529.25
2023-04-21T23:59:45.867Z,101516.72
